Coral Harbour Airport
CYZS : now visible

Airfield :











YOU CAN JOIN US ON...

 
LOGIN :

Register | Disclaimer

   EN    FR    IT 

 









Legend :    VFR   Marginal VFR   IFR   Intensive IFR   Very Intensive IFR
Visi :
Ceiling :
>= 8 km
>= 3000ft
5 to 8 km
1000 to 3000 ft
1500m to 5 km
500 to 1000 ft
800 to 1500m
200 to 500 ft
< 800m
< 200 ft
Symbols :   Thunderstorms  Fog  Heavy snow  Heavy precipitations  Wind > 20 kt






- Airport Elevation : 210 ft
- IATA code : YZS


CYZS - Coral Harbour

CURRENT METAR :
  • 172100Z 02006KT 15SM IC FEW100 SCT210 M36/M40 A2952 RMK AC1CI4 AC TR SLP012

EXPIRED METARs :
  • 172000Z 03007KT 15SM IC FEW120 BKN210 M35/M38 A2950 RMK AC1CI6 SLP003
  • 171900Z 05007KT 15SM IC BKN210 M35/M38 A2948 RMK CI6 SLP997

TAF TAF CYZS
Valid from the 17 at 19:00 until the 18 at 07:00 UTC


171838Z 1719/1807 36008KT P6SM FEW030 BKN210 RMK NXT FCST BY 180100Z



MET'MAP, your aeronautical weather chart ! - Copyright ORBIFLY December 2007 - Disclaimer

ORBIFLY MET'MAP TEAM :

Programming & Development : Alexandra Zaïnal
Concept & original design : Baudouin d'Aumeries
Assistance for programming : Marc-Olivier Méhu
Technical & hardware support : Manuel Goepfert

Contact : metmap@orbifly.com




SOURCES & CREDITS :

   NOAA       Earth
Advisory